Welcome to the updated website with new and more accurate equipment. Established 2007


Active alerts

Marquette
  Details for Marquette Winter Weather Advisory

Local Station more information Local Station


Mount Mesnard more information Mount Mesnard


Visit our other weather sites:

Template documentation
and downloads

And another site


CBI


Nearby METAR Reports

   
KSAW - Sawyer, Michigan
Updated: 19-11-2018 16:46
Light Snow, Overcast  
Light Snow, Overcast  
   Wind: NNE 9.2 mph
Wind: NNE 9.2 mph
Temperature: 21.2°F
Wind Chill: 10.4°F
Dew Point: 17.6°F
Humidity: 86%
Barometer: 30.05 inHg
Clouds: Overcast
Visibility: 1 mi
Cloud details: Overcast 274 m
KSAW 192146Z 02008KT 1 1/2SM -SN OVC009 M06/M08 A3005
KESC - Escanaba, Michigan
Updated: 19-11-2018 17:09
Light Snow, Overcast  
Light Snow, Overcast  
   Wind: NNE 9.2 mph
Wind: NNE 9.2 mph
Temperature: 24.8°F
Wind Chill: 15.8°F
Dew Point: 19.4°F
Humidity: 80%
Barometer: 30.09 inHg
Clouds: Overcast
Visibility: 9 mi
Cloud details: Overcast 884 m
KESC 192209Z AUTO 02008KT 9SM -SN OVC029 M04/M07 A3009 RMK AO2 P0000 FZRANO
KIMT - Iron Mountain, MI
Updated: 19-11-2018 17:26
Light Snow, Overcast  
Light Snow, Overcast  
   Wind: North 9.2 mph
Wind: North 9.2 mph
Temperature: 24.8°F
Wind Chill: 15.8°F
Dew Point: 19.4°F
Humidity: 80%
Barometer: 30.06 inHg
Clouds: Overcast
Visibility: 3 mi
Cloud details: Mostly Cloudy 579 m,
Mostly Cloudy 732 m,
Overcast 1067 m
KIMT 192226Z AUTO 36008KT 3SM -SN BKN019 BKN024 OVC035 M04/M07 A3006 RMK AO2 SNB06 P0000 T10441072
KGRB - Green Bay, WI
Updated: 19-11-2018 17:18
Overcast  
Overcast  
   Wind: NNE 8.1 mph
Wind: NNE 8.1 mph
Temperature: 30.2°F
Wind Chill: 23°F
Dew Point: 19.4°F
Humidity: 64%
Barometer: 30.06 inHg
Clouds: Overcast
Visibility: 10 mi
Cloud details: Overcast 945 m
KGRB 192218Z 02007KT 10SM OVC031 M01/M07 A3006 RMK AO2 T10111072
KDET - Detroit, MI
Updated: 19-11-2018 16:53
Mostly Cloudy  
Mostly Cloudy  
   Wind: SSW 6.9 mph
Wind: SSW 6.9 mph
Temperature: 37.4°F
Wind Chill: 32°F
Dew Point: 28.4°F
Humidity: 70%
Barometer: 29.98 inHg
Clouds: Mostly Cloudy
Visibility: 10 mi
Cloud details: Mostly Cloudy 732 m
KDET 192153Z 21006KT 10SM BKN024 03/M02 A2998 RMK AO2 SLP160 T00281017
 

Script developed by  Saratoga-weather.org Adapted for the template by  Weerstation Leuven

You find our weather info also at:

Weather Underground

Midwestern Weather Network

WeatherlinkIP

Citizen Weather Observer Program (CWOP)

Equipment we use:

Weather-station
Davis VP2

Weather-program
Davis Weatherlink.Com

Davis VP2

Davis Weatherlink.Com